Time;durP1;ratioP1;P1;durP2;ratioP2;P2;SDS_P1;SDS_P2;PMS_P1;PMS_P2;Temp;Humidity;BMP_temperature;BMP_pressure;BME280_temperature;BME280_humidity;BME280_pressure;Samples;Min_cycle;Max_cycle;Signal;HPM_P1;HPM_P2
2022/05/29 00:02:15;;;;;;;4.50;1.60;;;6.80;48.10;;;;;;8325500;28;20281;-79
2022/05/29 00:06:16;;;;;;;2.83;1.50;;;6.70;99.90;;;;;;8322331;28;20178;-78
2022/05/29 00:10:18;;;;;;;3.20;1.60;;;6.50;99.90;;;;;;8323103;28;20232;-78
2022/05/29 00:14:20;;;;;;;6.40;1.60;;;6.40;99.90;;;;;;8321520;28;20182;-80
2022/05/29 00:18:21;;;;;;;5.33;1.90;;;6.30;1.00;;;;;;8333443;28;20194;-79
2022/05/29 00:22:23;;;;;;;6.43;2.53;;;6.30;14.40;;;;;;8324202;28;20186;-79
2022/05/29 00:26:24;;;;;;;6.87;2.37;;;6.30;99.90;;;;;;8317126;28;20191;-78
2022/05/29 00:30:25;;;;;;;4.90;2.23;;;6.40;99.90;;;;;;8320241;28;20197;-78
2022/05/29 00:34:26;;;;;;;4.20;2.13;;;6.40;99.90;;;;;;8338192;28;20198;-78
2022/05/29 00:38:28;;;;;;;5.03;2.77;;;6.40;99.90;;;;;;8320599;28;20201;-78
2022/05/29 00:42:28;;;;;;;4.53;2.13;;;6.40;99.90;;;;;;8319062;28;20186;-78
2022/05/29 00:46:31;;;;;;;6.07;2.40;;;6.40;99.90;;;;;;8322487;28;20186;-78
2022/05/29 00:50:32;;;;;;;5.43;2.10;;;6.40;99.90;;;;;;8325707;28;20217;-78
2022/05/29 00:54:53;;;;;;;3.27;2.00;;;6.40;99.90;;;;;;8326876;28;20248;-78
2022/05/29 00:58:56;;;;;;;3.73;2.20;;;6.40;99.90;;;;;;8320993;28;20196;-78
2022/05/29 01:02:59;;;;;;;2.20;1.93;;;6.30;99.90;;;;;;8329652;28;20224;-78
2022/05/29 01:07:06;;;;;;;5.10;2.40;;;6.20;99.90;;;;;;8324770;28;20329;-78
2022/05/29 01:11:28;;;;;;;3.43;2.10;;;6.10;99.90;;;;;;8318510;28;20178;-79
2022/05/29 01:15:52;;;;;;;5.43;2.30;;;6.00;99.90;;;;;;8318305;28;20224;-79
2022/05/29 01:20:07;;;;;;;2.50;1.67;;;5.90;99.90;;;;;;8336639;28;20202;-79
2022/05/29 01:24:32;;;;;;;3.43;2.00;;;5.80;99.90;;;;;;8339246;28;20194;-78
2022/05/29 01:28:57;;;;;;;6.20;2.30;;;5.60;99.90;;;;;;8337849;28;20223;-80
2022/05/29 01:33:23;;;;;;;4.53;2.33;;;5.60;99.90;;;;;;8320468;28;20194;-80
2022/05/29 01:37:51;;;;;;;3.33;2.53;;;5.50;99.90;;;;;;8327070;28;20182;-79
2022/05/29 01:42:00;;;;;;;4.07;2.87;;;5.50;99.90;;;;;;8328513;28;20552;-78
2022/05/29 01:46:14;;;;;;;2.53;2.00;;;5.50;99.90;;;;;;8337094;28;20269;-78
2022/05/29 01:50:26;;;;;;;3.87;2.63;;;5.50;99.90;;;;;;8321259;28;20217;-78
2022/05/29 01:54:38;;;;;;;3.63;2.27;;;5.50;99.90;;;;;;8341234;28;20181;-79
2022/05/29 01:58:46;;;;;;;4.67;2.93;;;5.40;99.90;;;;;;8349481;28;20214;-78
2022/05/29 02:02:58;;;;;;;3.80;2.37;;;5.40;99.90;;;;;;8328457;28;20306;-78
2022/05/29 02:11:26;;;;;;;2.67;2.03;;;5.40;99.90;;;;;;8341335;28;20185;-79
2022/05/29 02:15:39;;;;;;;3.03;2.43;;;5.30;99.90;;;;;;8329760;28;20187;-78
2022/05/29 02:19:49;;;;;;;4.63;2.17;;;5.30;99.90;;;;;;8339876;28;20198;-79
2022/05/29 02:23:55;;;;;;;6.97;2.33;;;5.30;99.90;;;;;;8326505;28;20194;-78
2022/05/29 02:28:02;;;;;;;2.63;2.30;;;5.30;99.90;;;;;;8326409;28;20259;-79
2022/05/29 02:32:05;;;;;;;5.47;2.23;;;5.40;99.90;;;;;;8332818;28;20230;-78
2022/05/29 02:36:24;;;;;;;5.00;2.40;;;5.40;99.90;;;;;;8352320;28;20188;-78
2022/05/29 02:40:42;;;;;;;3.60;2.20;;;5.40;99.90;;;;;;8334482;28;20215;-79
2022/05/29 02:44:53;;;;;;;7.97;2.53;;;5.40;99.90;;;;;;8343915;28;20277;-79
2022/05/29 02:49:04;;;;;;;7.47;2.50;;;5.40;99.90;;;;;;8333025;28;20221;-78
2022/05/29 02:53:12;;;;;;;5.03;2.50;;;5.30;99.90;;;;;;8332628;28;20207;-78
2022/05/29 02:57:13;;;;;;;4.53;2.50;;;5.30;99.90;;;;;;8329156;28;20210;-78
2022/05/29 03:01:26;;;;;;;4.57;2.83;;;5.30;99.90;;;;;;8330618;28;20182;-78
2022/05/29 03:06:00;;;;;;;4.60;2.60;;;5.40;99.90;;;;;;8334084;28;20718;-80
2022/05/29 03:10:20;;;;;;;3.67;2.63;;;5.40;99.90;;;;;;8329132;28;20215;-77
2022/05/29 03:14:55;;;;;;;6.13;3.30;;;5.60;99.90;;;;;;8344613;28;20195;-76
2022/05/29 03:19:05;;;;;;;4.57;2.93;;;6.00;99.90;;;;;;8321357;28;20185;-75
2022/05/29 03:23:26;;;;;;;3.03;2.57;;;6.60;99.90;;;;;;8338114;28;20257;-81
2022/05/29 03:27:41;;;;;;;5.60;2.60;;;7.40;99.90;;;;;;8338812;28;20202;-77
2022/05/29 03:31:44;;;;;;;2.60;2.00;;;8.20;99.90;;;;;;8347639;28;20245;-77
2022/05/29 03:35:52;;;;;;;3.77;2.07;;;8.90;99.90;;;;;;8325729;28;20182;-80
2022/05/29 03:39:53;;;;;;;4.07;1.70;;;9.50;1.00;;;;;;8329381;28;20213;-76
2022/05/29 03:43:54;;;;;;;3.73;1.40;;;9.80;48.30;;;;;;8319446;28;20232;-80
2022/05/29 03:47:55;;;;;;;8.20;2.07;;;10.00;1.00;;;;;;8327114;28;20239;-78
2022/05/29 03:51:57;;;;;;;3.37;1.83;;;10.20;1.00;;;;;;8341408;28;20182;-76
2022/05/29 03:55:58;;;;;;;5.67;1.50;;;10.60;99.90;;;;;;8340293;28;20185;-75
2022/05/29 03:59:59;;;;;;;6.00;1.70;;;11.50;1.00;;;;;;8342785;28;20187;-75
2022/05/29 04:03:59;;;;;;;2.83;1.37;;;12.40;1.00;;;;;;8320383;28;20179;-75
2022/05/29 04:12:19;;;;;;;4.77;1.60;;;14.00;1.00;;;;;;8341992;28;20212;-79
2022/05/29 04:16:20;;;;;;;4.63;1.63;;;14.30;99.90;;;;;;8344425;28;20183;-76
2022/05/29 04:20:21;;;;;;;5.50;1.33;;;13.60;99.90;;;;;;8323647;28;20328;-76
2022/05/29 04:24:22;;;;;;;6.07;1.40;;;13.40;99.90;;;;;;8349559;28;20185;-80
2022/05/29 04:28:23;;;;;;;3.93;1.70;;;13.40;99.90;;;;;;8323459;28;20224;-78
2022/05/29 04:36:43;;;;;;;4.33;1.90;;;15.00;99.90;;;;;;8343445;28;20195;-77
2022/05/29 04:40:44;;;;;;;3.37;1.50;;;15.10;6.10;;;;;;8325209;28;20230;-76
2022/05/29 04:44:45;;;;;;;4.07;1.30;;;15.30;3.80;;;;;;8320600;28;20180;-76
2022/05/29 04:48:46;;;;;;;2.67;1.20;;;15.40;1.00;;;;;;8319504;28;20241;-80
2022/05/29 04:52:49;;;;;;;4.00;1.17;;;15.30;13.30;;;;;;8327531;28;20185;-75
2022/05/29 04:56:50;;;;;;;4.83;1.17;;;15.30;1.00;;;;;;8339679;28;20182;-75
2022/05/29 05:01:00;;;;;;;5.23;1.30;;;15.40;13.30;;;;;;8329649;28;20268;-76
2022/05/29 05:05:00;;;;;;;3.40;1.10;;;15.20;1.00;;;;;;8319553;28;20186;-76
2022/05/29 05:09:02;;;;;;;4.60;1.60;;;14.90;94.30;;;;;;8327742;28;20209;-79
2022/05/29 05:13:03;;;;;;;5.17;1.40;;;13.60;99.90;;;;;;8327945;28;20185;-75
2022/05/29 05:17:04;;;;;;;4.33;2.20;;;12.70;2.10;;;;;;8349959;28;20185;-75
2022/05/29 05:21:06;;;;;;;9.90;1.60;;;12.00;99.90;;;;;;8327152;28;20255;-75
2022/05/29 05:25:09;;;;;;;4.70;1.50;;;11.80;1.00;;;;;;8331479;28;20185;-75
2022/05/29 05:29:13;;;;;;;4.40;1.20;;;11.50;92.90;;;;;;8351863;28;20288;-80
2022/05/29 05:33:14;;;;;;;6.40;1.57;;;11.40;99.90;;;;;;8331893;28;20189;-75
2022/05/29 05:37:16;;;;;;;5.27;1.30;;;11.40;99.90;;;;;;8328056;28;20189;-79
2022/05/29 05:41:17;;;;;;;3.27;1.23;;;11.60;91.90;;;;;;8335110;28;20212;-76
2022/05/29 05:45:18;;;;;;;2.97;1.20;;;11.70;99.90;;;;;;8339336;28;20196;-79
2022/05/29 05:49:21;;;;;;;3.93;1.70;;;11.80;1.00;;;;;;8332880;28;20270;-76
2022/05/29 05:53:23;;;;;;;4.17;1.53;;;11.90;99.90;;;;;;8330966;28;20186;-75
2022/05/29 05:57:23;;;;;;;4.40;2.07;;;12.10;99.90;;;;;;8348300;28;20573;-79
2022/05/29 06:01:24;;;;;;;4.20;1.40;;;12.10;1.00;;;;;;8329845;28;20258;-79
2022/05/29 06:05:26;;;;;;;5.13;1.30;;;12.20;1.00;;;;;;8332887;28;20233;-75
2022/05/29 06:09:29;;;;;;;4.63;1.13;;;12.20;99.90;;;;;;8328074;28;20202;-76
2022/05/29 06:13:29;;;;;;;5.33;1.40;;;12.40;1.00;;;;;;8327958;28;20247;-76
2022/05/29 06:17:31;;;;;;;4.30;1.37;;;12.60;1.00;;;;;;8348937;28;20178;-80
2022/05/29 06:21:35;;;;;;;3.77;1.33;;;12.70;99.90;;;;;;8330433;28;20213;-75
2022/05/29 06:25:39;;;;;;;4.17;1.33;;;12.80;99.90;;;;;;8348419;28;20186;-76
2022/05/29 06:29:40;;;;;;;5.17;1.60;;;12.80;99.90;;;;;;8336241;28;20217;-76
2022/05/29 06:33:41;;;;;;;5.37;1.60;;;13.10;99.80;;;;;;8333345;28;20576;-80
2022/05/29 06:37:42;;;;;;;5.23;1.20;;;13.20;3.10;;;;;;8340266;28;20186;-77
2022/05/29 06:41:43;;;;;;;3.80;1.53;;;13.50;1.00;;;;;;8326124;28;20202;-76
2022/05/29 06:45:44;;;;;;;4.33;0.97;;;13.60;1.00;;;;;;8324930;28;20245;-76
2022/05/29 06:49:50;;;;;;;7.30;1.30;;;13.80;99.90;;;;;;8327015;28;20611;-76
2022/05/29 06:53:55;;;;;;;3.23;1.50;;;13.80;99.90;;;;;;8324918;28;20186;-75
2022/05/29 06:57:56;;;;;;;4.30;1.13;;;13.90;99.90;;;;;;8335444;28;20181;-74
2022/05/29 07:10:35;;;;;;;7.40;1.60;;;13.80;99.90;;;;;;8338895;28;20201;-75
2022/05/29 07:14:39;;;;;;;3.77;1.00;;;13.80;99.90;;;;;;8324960;28;20202;-75
2022/05/29 07:18:39;;;;;;;2.73;1.00;;;13.90;99.90;;;;;;8320108;28;20225;-77
2022/05/29 07:22:42;;;;;;;4.07;1.20;;;14.20;1.00;;;;;;8329925;28;20194;-75
2022/05/29 07:26:43;;;;;;;3.60;1.40;;;13.80;96.60;;;;;;8323962;28;20178;-76
2022/05/29 07:30:48;;;;;;;2.90;0.90;;;13.70;99.90;;;;;;8340948;28;20205;-77
2022/05/29 07:34:49;;;;;;;5.13;1.00;;;14.00;99.90;;;;;;8324609;28;20178;-79
2022/05/29 07:38:50;;;;;;;2.00;1.23;;;14.70;99.90;;;;;;8340497;28;20216;-75
2022/05/29 07:47:34;;;;;;;2.60;1.10;;;16.00;1.00;;;;;;8266807;28;20233;-77
2022/05/29 07:51:35;;;;;;;1.60;0.63;;;15.60;1.00;;;;;;8324712;28;20190;-76
2022/05/29 07:55:37;;;;;;;2.07;0.90;;;15.60;1.00;;;;;;8341606;28;20246;-77
2022/05/29 07:59:38;;;;;;;5.00;1.00;;;15.60;99.90;;;;;;8328868;28;20185;-76
2022/05/29 08:03:39;;;;;;;4.43;1.03;;;15.20;99.90;;;;;;8339023;28;20189;-77
2022/05/29 08:07:41;;;;;;;1.80;0.70;;;14.80;1.00;;;;;;8321920;28;20291;-80
2022/05/29 08:11:42;;;;;;;1.40;0.70;;;14.50;1.00;;;;;;8325424;28;20292;-77
2022/05/29 08:15:45;;;;;;;2.80;1.00;;;14.20;1.00;;;;;;8318692;28;20185;-76
2022/05/29 08:19:46;;;;;;;3.87;1.00;;;14.50;1.00;;;;;;8325497;28;20186;-76
2022/05/29 08:30:37;;;;;;;5.10;1.27;;;15.30;1.00;;;;;;8329373;28;20185;-76
2022/05/29 08:32:27;;;;;;;1.90;0.90;;;15.50;99.90;;;;;;8337406;28;20241;-76
2022/05/29 08:36:28;;;;;;;2.53;1.00;;;15.30;1.00;;;;;;8340583;28;20253;-76
2022/05/29 08:40:30;;;;;;;3.97;0.97;;;15.80;1.00;;;;;;8315729;28;20199;-77
2022/05/29 08:44:45;;;;;;;2.33;0.87;;;16.40;1.00;;;;;;8320404;28;20183;-80
2022/05/29 08:48:50;;;;;;;3.17;1.00;;;16.20;99.90;;;;;;8340954;28;20213;-80
2022/05/29 08:53:21;;;;;;;4.20;1.20;;;15.80;99.90;;;;;;8325763;28;20182;-80
2022/05/29 08:57:41;;;;;;;2.90;0.77;;;16.30;99.90;;;;;;8316628;28;20186;-77
2022/05/29 09:02:28;;;;;;;3.70;0.80;;;17.20;99.90;;;;;;8330462;28;20182;-81
2022/05/29 09:06:47;;;;;;;3.33;0.50;;;18.00;99.90;;;;;;8333376;28;20202;-80
2022/05/29 09:10:53;;;;;;;2.50;1.00;;;18.10;99.90;;;;;;8328750;28;20251;-80
2022/05/29 09:15:19;;;;;;;3.70;0.83;;;17.80;99.90;;;;;;8325430;28;20182;-76
2022/05/29 09:19:45;;;;;;;3.17;0.90;;;16.90;99.90;;;;;;8316910;28;20454;-81
2022/05/29 09:24:05;;;;;;;2.73;0.70;;;16.20;99.90;;;;;;8340665;28;20193;-77
2022/05/29 09:28:24;;;;;;;4.27;0.90;;;16.00;99.90;;;;;;8325321;28;20406;-76
2022/05/29 09:32:32;;;;;;;2.83;0.77;;;15.70;99.90;;;;;;8342981;28;20174;-79
2022/05/29 09:37:34;;;;;;;3.70;1.27;;;16.10;99.90;;;;;;8342978;28;20174;-77
2022/05/29 09:41:44;;;;;;;2.97;1.10;;;16.40;99.90;;;;;;8217502;28;20436;-80
2022/05/29 09:45:46;;;;;;;2.30;0.70;;;16.50;99.90;;;;;;8263142;28;20198;-76
2022/05/29 09:50:11;;;;;;;7.03;1.00;;;16.00;99.90;;;;;;8338715;28;20209;-76
2022/05/29 09:54:32;;;;;;;3.37;1.27;;;15.70;99.90;;;;;;8342362;28;20179;-79
2022/05/29 09:58:46;;;;;;;6.20;1.00;;;15.70;99.90;;;;;;8327366;28;20182;-77
2022/05/29 10:02:47;;;;;;;1.43;0.60;;;15.80;99.90;;;;;;8335760;28;20182;-76
2022/05/29 10:06:53;;;;;;;2.83;0.57;;;16.30;99.90;;;;;;8347977;28;20265;-75
2022/05/29 10:10:54;;;;;;;1.93;0.80;;;16.60;99.90;;;;;;8330805;28;20182;-76
2022/05/29 10:14:55;;;;;;;2.47;0.47;;;17.00;99.90;;;;;;8330145;28;20243;-76
2022/05/29 10:18:56;;;;;;;2.47;0.60;;;17.50;99.90;;;;;;8345261;28;20197;-77
2022/05/29 10:23:06;;;;;;;3.87;0.60;;;17.70;99.90;;;;;;8333819;28;20178;-79
2022/05/29 10:27:25;;;;;;;1.20;0.50;;;17.50;95.90;;;;;;8331898;28;20219;-77
2022/05/29 10:31:34;;;;;;;2.97;0.70;;;17.20;99.90;;;;;;8346203;28;20257;-77
2022/05/29 10:35:40;;;;;;;1.73;0.50;;;17.40;99.90;;;;;;8326023;28;20212;-76
2022/05/29 10:39:41;;;;;;;3.07;0.70;;;16.90;99.90;;;;;;8338066;28;20237;-77
2022/05/29 10:43:51;;;;;;;2.23;0.93;;;16.40;99.90;;;;;;8347446;28;20190;-80
2022/05/29 10:48:11;;;;;;;1.23;0.70;;;16.20;99.90;;;;;;8326532;28;20210;-77
2022/05/29 10:52:54;;;;;;;1.00;0.50;;;16.10;99.90;;;;;;8340900;28;20277;-75
2022/05/29 10:57:16;;;;;;;4.30;0.90;;;16.20;99.90;;;;;;8322801;28;20695;-75
2022/05/29 11:06:03;;;;;;;5.27;0.70;;;16.30;99.90;;;;;;8346489;28;20197;-80
2022/05/29 11:10:33;;;;;;;3.03;0.93;;;17.10;99.90;;;;;;8339069;28;20210;-75
2022/05/29 11:15:08;;;;;;;4.90;0.70;;;17.80;99.90;;;;;;8343867;28;20178;-79
2022/05/29 11:19:14;;;;;;;2.17;0.57;;;17.80;14.00;;;;;;8324274;28;20320;-76
2022/05/29 11:23:37;;;;;;;1.90;0.53;;;17.30;33.30;;;;;;8335516;28;20228;-76
2022/05/29 11:27:55;;;;;;;1.23;0.40;;;17.00;37.60;;;;;;8331452;28;20253;-76
2022/05/29 11:32:04;;;;;;;2.33;0.90;;;16.40;83.70;;;;;;8339513;28;20240;-80
2022/05/29 11:36:20;;;;;;;3.27;0.80;;;16.40;99.90;;;;;;8327670;28;20174;-78
2022/05/29 11:40:36;;;;;;;2.20;0.80;;;16.70;99.90;;;;;;8325291;28;20202;-77
2022/05/29 11:44:51;;;;;;;2.33;0.60;;;16.50;99.90;;;;;;8338849;28;20232;-79
2022/05/29 11:53:45;;;;;;;1.90;0.60;;;15.90;99.90;;;;;;8347401;28;20197;-76
2022/05/29 11:58:00;;;;;;;2.23;0.60;;;16.60;99.90;;;;;;8308220;28;20259;-76
2022/05/29 12:02:19;;;;;;;2.83;0.67;;;17.10;99.90;;;;;;8328368;28;20182;-77
2022/05/29 12:06:40;;;;;;;4.27;0.53;;;16.80;99.90;;;;;;8323009;28;20183;-75
2022/05/29 12:10:57;;;;;;;2.87;0.53;;;16.50;99.90;;;;;;8322003;28;20264;-77
2022/05/29 12:15:02;;;;;;;1.90;0.50;;;16.60;99.90;;;;;;8326775;28;20189;-80
2022/05/29 12:19:15;;;;;;;2.70;0.60;;;16.10;99.20;;;;;;8322894;28;20181;-75
2022/05/29 12:23:25;;;;;;;1.90;0.60;;;15.70;99.90;;;;;;8326329;28;20250;-75
2022/05/29 12:27:28;;;;;;;1.37;0.43;;;16.00;99.90;;;;;;8324594;28;20216;-77
2022/05/29 12:32:04;;;;;;;0.90;0.50;;;16.60;55.80;;;;;;8325942;28;20194;-75
2022/05/29 12:36:24;;;;;;;3.60;0.73;;;16.90;12.60;;;;;;8284318;28;20186;-75
2022/05/29 12:40:40;;;;;;;4.60;0.80;;;17.20;6.50;;;;;;8335432;28;20198;-76
2022/05/29 12:45:03;;;;;;;0.90;0.50;;;17.40;34.30;;;;;;8323102;28;20190;-77
2022/05/29 12:49:36;;;;;;;1.33;0.50;;;17.60;1.40;;;;;;8343976;28;20440;-76
2022/05/29 12:54:01;;;;;;;1.23;0.50;;;18.80;3.20;;;;;;8319112;28;20355;-80
2022/05/29 12:58:12;;;;;;;2.30;0.63;;;18.80;1.00;;;;;;8324277;28;20224;-80
2022/05/29 13:02:19;;;;;;;2.00;0.60;;;18.60;1.00;;;;;;8328378;28;20289;-77
2022/05/29 13:06:50;;;;;;;1.33;0.70;;;18.10;1.00;;;;;;8338378;28;20486;-75
2022/05/29 13:10:53;;;;;;;0.60;0.40;;;17.90;1.00;;;;;;8329130;28;20197;-76
2022/05/29 13:15:03;;;;;;;3.20;0.60;;;18.20;1.00;;;;;;8325245;28;20181;-76
2022/05/29 13:19:14;;;;;;;1.63;0.70;;;19.00;1.00;;;;;;8323070;28;20186;-77
2022/05/29 13:23:32;;;;;;;1.43;0.50;;;19.90;1.00;;;;;;8326890;28;20182;-75
2022/05/29 13:27:33;;;;;;;2.77;0.73;;;19.60;1.00;;;;;;8339271;28;20206;-77
2022/05/29 13:32:12;;;;;;;1.80;0.70;;;19.20;1.00;;;;;;8331901;28;20198;-76
2022/05/29 13:36:43;;;;;;;2.20;0.57;;;19.20;1.00;;;;;;8327452;28;20182;-75
2022/05/29 13:40:45;;;;;;;2.63;0.77;;;19.30;1.00;;;;;;8334117;28;20201;-80
2022/05/29 13:44:46;;;;;;;3.17;0.60;;;18.70;1.00;;;;;;8343295;28;20607;-75
2022/05/29 13:49:05;;;;;;;1.10;0.50;;;18.30;1.00;;;;;;8332465;28;20263;-76
2022/05/29 13:53:24;;;;;;;1.43;0.60;;;17.90;1.00;;;;;;8338666;28;20202;-76
2022/05/29 14:03:58;;;;;;;1.43;0.70;;;17.70;1.00;;;;;;8326258;28;20209;-78
2022/05/29 14:06:24;;;;;;;1.87;0.67;;;16.90;19.30;;;;;;8346973;28;20221;-79
2022/05/29 14:10:29;;;;;;;2.30;0.63;;;17.30;15.70;;;;;;8336965;28;20213;-77
2022/05/29 14:14:30;;;;;;;1.00;0.50;;;17.60;1.00;;;;;;8331606;28;20178;-77
2022/05/29 14:18:37;;;;;;;1.77;0.90;;;17.90;1.00;;;;;;8327866;28;20281;-77
2022/05/29 14:23:32;;;;;;;3.13;0.80;;;18.30;1.00;;;;;;8328535;28;20193;-76
2022/05/29 14:28:04;;;;;;;1.37;0.53;;;18.40;1.00;;;;;;8236203;28;20215;-78
2022/05/29 14:32:04;;;;;;;1.43;0.60;;;18.60;1.00;;;;;;8345763;28;20187;-76
2022/05/29 14:36:17;;;;;;;1.83;0.70;;;18.70;1.00;;;;;;8332094;28;20188;-78
2022/05/29 14:40:30;;;;;;;1.50;0.50;;;19.20;1.00;;;;;;8323572;28;20206;-77
2022/05/29 14:44:44;;;;;;;0.80;0.30;;;19.00;1.00;;;;;;8326433;28;20182;-78
2022/05/29 14:49:10;;;;;;;1.63;0.60;;;19.20;1.00;;;;;;8330180;28;20214;-76
2022/05/29 14:53:23;;;;;;;2.57;0.60;;;19.60;1.00;;;;;;8340409;28;20569;-80
2022/05/29 14:57:29;;;;;;;3.83;1.13;;;19.00;1.00;;;;;;8350982;28;20269;-76
2022/05/29 15:01:30;;;;;;;1.93;0.60;;;18.80;1.00;;;;;;8326015;28;20205;-76
2022/05/29 15:05:46;;;;;;;2.20;0.60;;;18.30;1.00;;;;;;8320775;28;20186;-76
2022/05/29 15:14:13;;;;;;;0.97;0.47;;;18.40;1.00;;;;;;8352620;28;20309;-75
2022/05/29 15:18:20;;;;;;;1.83;0.50;;;18.30;1.00;;;;;;8337614;28;20178;-75
2022/05/29 15:27:01;;;;;;;1.83;0.70;;;18.80;1.00;;;;;;8353075;28;20216;-80
2022/05/29 15:31:04;;;;;;;2.10;0.70;;;18.60;1.00;;;;;;8340310;28;20230;-74
2022/05/29 15:35:11;;;;;;;2.30;0.63;;;18.70;1.00;;;;;;8344090;28;20215;-77
2022/05/29 15:39:26;;;;;;;1.83;0.40;;;18.70;1.00;;;;;;8361478;28;20206;-77
2022/05/29 15:43:27;;;;;;;3.23;0.60;;;18.50;1.00;;;;;;8350313;28;20182;-76
2022/05/29 15:48:01;;;;;;;2.20;0.73;;;18.40;1.00;;;;;;8338608;28;20206;-76
2022/05/29 15:52:23;;;;;;;3.23;0.80;;;18.40;1.00;;;;;;8345357;28;20182;-78
2022/05/29 15:57:02;;;;;;;1.83;0.50;;;18.10;25.40;;;;;;8322912;28;20184;-76
2022/05/29 16:01:08;;;;;;;2.07;0.53;;;17.70;92.90;;;;;;8327455;28;20188;-77
2022/05/29 16:05:39;;;;;;;2.00;0.70;;;17.60;58.60;;;;;;8330526;28;20182;-77
2022/05/29 16:09:52;;;;;;;1.47;0.50;;;17.60;43.10;;;;;;8321987;28;20229;-76
2022/05/29 16:13:53;;;;;;;1.47;0.70;;;17.70;90.70;;;;;;8325367;28;20269;-77
2022/05/29 16:18:38;;;;;;;2.37;0.83;;;17.90;49.60;;;;;;8339485;28;20241;-79
2022/05/29 16:22:57;;;;;;;2.90;0.90;;;17.90;27.10;;;;;;8327678;28;20182;-76
2022/05/29 16:27:35;;;;;;;2.20;0.87;;;17.50;82.30;;;;;;8321155;28;20186;-78
2022/05/29 16:31:56;;;;;;;1.80;0.93;;;17.50;74.40;;;;;;8333389;28;20200;-77
2022/05/29 16:36:00;;;;;;;2.77;1.17;;;17.50;40.10;;;;;;8330260;28;20186;-78
2022/05/29 16:49:02;;;;;;;4.53;1.10;;;17.60;37.90;;;;;;8335043;28;20225;-76
2022/05/29 16:53:12;;;;;;;2.33;0.83;;;17.60;27.00;;;;;;8341824;28;20197;-79
2022/05/29 16:58:01;;;;;;;2.13;1.03;;;17.50;18.40;;;;;;8324214;28;20193;-77
2022/05/29 17:02:22;;;;;;;1.60;0.70;;;17.70;24.50;;;;;;8300355;28;20192;-77
2022/05/29 17:06:31;;;;;;;1.37;0.50;;;17.90;12.20;;;;;;8320378;28;20189;-75
2022/05/29 17:10:43;;;;;;;2.17;0.60;;;17.80;53.10;;;;;;8325673;28;20214;-77
2022/05/29 17:14:52;;;;;;;2.83;0.83;;;17.40;18.20;;;;;;8321312;28;20178;-77
2022/05/29 17:18:53;;;;;;;2.53;0.90;;;17.50;35.10;;;;;;8322016;28;20186;-78
2022/05/29 17:23:20;;;;;;;1.77;0.80;;;17.60;99.90;;;;;;8323023;28;20185;-77
2022/05/29 17:27:29;;;;;;;2.87;0.90;;;17.40;99.90;;;;;;8327308;28;20206;-75
2022/05/29 17:31:46;;;;;;;1.40;1.20;;;17.20;99.90;;;;;;8340990;28;20217;-74
2022/05/29 17:35:53;;;;;;;2.60;1.53;;;16.70;99.90;;;;;;8327023;28;20187;-75
2022/05/29 17:40:04;;;;;;;4.33;3.93;;;16.10;99.90;;;;;;8323916;28;20215;-75
2022/05/29 17:44:07;;;;;;;5.33;1.70;;;15.70;1.00;;;;;;8333220;28;20218;-77
2022/05/29 17:48:23;;;;;;;2.57;1.50;;;15.30;99.90;;;;;;8324107;28;20301;-79
2022/05/29 17:52:31;;;;;;;1.90;1.23;;;14.80;1.00;;;;;;8317519;28;20187;-74
2022/05/29 17:56:31;;;;;;;3.47;1.33;;;14.40;99.90;;;;;;8340392;28;20214;-76
2022/05/29 18:00:36;;;;;;;3.43;1.03;;;14.10;1.00;;;;;;8323999;28;20182;-81
2022/05/29 18:04:41;;;;;;;2.40;1.00;;;13.80;99.90;;;;;;8329437;28;20195;-77
2022/05/29 18:08:43;;;;;;;3.10;1.10;;;13.50;99.90;;;;;;8325880;28;20397;-76
2022/05/29 18:12:44;;;;;;;5.30;1.20;;;13.10;99.90;;;;;;8312511;28;20194;-81
2022/05/29 18:16:47;;;;;;;5.00;1.37;;;12.80;99.90;;;;;;8327004;28;20258;-78
2022/05/29 18:20:48;;;;;;;3.37;1.23;;;12.40;1.00;;;;;;8330583;28;20272;-75
2022/05/29 18:24:49;;;;;;;4.13;1.50;;;12.00;95.20;;;;;;8327826;28;20192;-76
2022/05/29 18:28:53;;;;;;;3.87;1.60;;;11.60;99.90;;;;;;8330990;28;20223;-81
2022/05/29 18:32:54;;;;;;;4.23;1.40;;;11.30;99.90;;;;;;8330041;28;20280;-81
2022/05/29 18:36:57;;;;;;;1.67;1.10;;;11.00;99.90;;;;;;8327799;28;20181;-75
2022/05/29 18:40:59;;;;;;;2.80;1.57;;;11.00;1.00;;;;;;8308305;28;20214;-76
2022/05/29 18:45:00;;;;;;;4.80;1.70;;;10.90;10.80;;;;;;8343890;28;20181;-76
2022/05/29 18:49:01;;;;;;;4.77;1.77;;;10.70;99.90;;;;;;8327019;28;20205;-78
2022/05/29 18:53:03;;;;;;;2.77;1.97;;;10.70;99.90;;;;;;8341419;28;20189;-81
2022/05/29 18:57:07;;;;;;;9.10;5.93;;;10.70;68.00;;;;;;8316535;28;20277;-75
2022/05/29 19:01:10;;;;;;;19.50;9.60;;;10.80;15.90;;;;;;8342282;28;20185;-76
2022/05/29 19:05:15;;;;;;;10.53;7.67;;;10.80;1.00;;;;;;8337476;28;20213;-79
2022/05/29 19:09:18;;;;;;;5.30;2.67;;;10.80;1.00;;;;;;8330784;28;20206;-81
2022/05/29 19:13:20;;;;;;;4.03;2.50;;;10.80;99.90;;;;;;8323840;28;20179;-81
2022/05/29 19:21:45;;;;;;;8.67;6.00;;;10.70;99.90;;;;;;8344741;28;20243;-75
2022/05/29 19:25:47;;;;;;;12.53;7.17;;;10.70;45.90;;;;;;8342283;28;20182;-75
2022/05/29 19:29:48;;;;;;;7.57;6.47;;;10.70;1.00;;;;;;8343802;28;20253;-81
2022/05/29 19:33:52;;;;;;;6.33;5.40;;;10.80;99.90;;;;;;8332031;28;20202;-79
2022/05/29 19:37:54;;;;;;;5.77;3.93;;;10.80;99.90;;;;;;8319802;28;20171;-80
2022/05/29 19:42:00;;;;;;;3.73;2.67;;;10.70;99.90;;;;;;8333440;28;20249;-81
2022/05/29 19:46:02;;;;;;;5.67;2.37;;;10.70;1.00;;;;;;8333582;28;20186;-80
2022/05/29 19:50:06;;;;;;;3.57;2.30;;;10.50;1.00;;;;;;8336088;28;20209;-79
2022/05/29 19:54:07;;;;;;;4.37;2.03;;;10.40;1.00;;;;;;8334935;28;20197;-80
2022/05/29 19:58:08;;;;;;;2.07;1.70;;;10.40;6.80;;;;;;8350896;28;20265;-80
2022/05/29 20:02:09;;;;;;;2.27;1.70;;;10.30;99.80;;;;;;8327098;28;20189;-80
2022/05/29 20:06:38;;;;;;;3.20;2.17;;;10.30;99.90;;;;;;8329881;28;20193;-79
2022/05/29 20:10:39;;;;;;;2.93;2.07;;;10.20;99.90;;;;;;8319185;28;20229;-79
2022/05/29 20:14:47;;;;;;;1.93;1.57;;;10.20;99.90;;;;;;8325120;28;20213;-81
2022/05/29 20:18:48;;;;;;;2.70;1.97;;;10.20;99.90;;;;;;8329472;28;20197;-79
2022/05/29 20:22:49;;;;;;;4.20;1.60;;;10.20;99.90;;;;;;8307937;28;20228;-80
2022/05/29 20:26:51;;;;;;;1.77;1.50;;;10.10;99.90;;;;;;8324641;28;20187;-80
2022/05/29 20:30:54;;;;;;;4.57;2.00;;;10.10;99.90;;;;;;8328425;28;20292;-79
2022/05/29 20:34:56;;;;;;;2.77;1.70;;;10.10;99.90;;;;;;8323472;28;20181;-80
2022/05/29 20:38:57;;;;;;;3.57;1.83;;;10.00;99.90;;;;;;8329835;28;20545;-80
2022/05/29 20:42:58;;;;;;;2.70;2.20;;;10.00;99.90;;;;;;8328514;28;20301;-79
2022/05/29 20:51:18;;;;;;;3.50;2.23;;;9.90;99.90;;;;;;8346869;28;20224;-80
2022/05/29 20:55:19;;;;;;;3.30;2.07;;;9.80;99.90;;;;;;8320480;28;20173;-80
2022/05/29 20:59:22;;;;;;;3.90;1.67;;;9.80;99.90;;;;;;8336918;28;20532;-80
2022/05/29 21:03:23;;;;;;;2.57;1.67;;;9.70;99.90;;;;;;8329660;28;20182;-79
2022/05/29 21:07:24;;;;;;;4.07;1.97;;;9.70;99.90;;;;;;8324077;28;20192;-79
2022/05/29 21:11:25;;;;;;;4.80;4.30;;;9.60;99.90;;;;;;8328779;28;20171;-79
2022/05/29 21:15:31;;;;;;;4.17;2.77;;;9.60;99.90;;;;;;8316673;28;20205;-80
2022/05/29 21:19:32;;;;;;;3.80;2.20;;;9.60;99.90;;;;;;8315527;28;20221;-79
2022/05/29 21:23:36;;;;;;;2.70;2.10;;;9.50;99.90;;;;;;8326651;28;20183;-80
2022/05/29 21:27:37;;;;;;;2.80;2.27;;;9.50;99.90;;;;;;8337071;28;20212;-79
2022/05/29 21:31:38;;;;;;;4.03;2.73;;;9.60;99.90;;;;;;8327117;28;20221;-77
2022/05/29 21:35:39;;;;;;;3.00;2.33;;;9.50;99.90;;;;;;8328985;28;20194;-78
2022/05/29 21:39:40;;;;;;;2.10;1.90;;;9.50;99.90;;;;;;8331346;28;20206;-79
2022/05/29 21:43:41;;;;;;;2.20;1.87;;;9.40;99.90;;;;;;8324003;28;20189;-78
2022/05/29 21:47:44;;;;;;;3.23;1.83;;;9.40;99.90;;;;;;8339705;28;20233;-78
2022/05/29 21:51:45;;;;;;;2.77;1.90;;;9.30;99.90;;;;;;8323900;28;20193;-79
2022/05/29 21:55:46;;;;;;;2.20;2.00;;;9.30;99.90;;;;;;8309440;28;20181;-79
2022/05/29 21:59:47;;;;;;;2.40;2.20;;;9.20;99.90;;;;;;8335091;28;20182;-79
2022/05/29 22:03:54;;;;;;;2.40;2.20;;;9.10;99.90;;;;;;8331581;28;20244;-78
2022/05/29 22:07:55;;;;;;;3.27;2.10;;;9.10;99.90;;;;;;8330950;28;20205;-79
2022/05/29 22:11:56;;;;;;;4.73;2.10;;;9.10;99.90;;;;;;8332920;28;20184;-79
2022/05/29 22:16:05;;;;;;;3.37;2.10;;;9.00;99.90;;;;;;8333035;28;20188;-79
2022/05/29 22:20:07;;;;;;;2.50;2.10;;;9.00;99.90;;;;;;8325904;28;20182;-79
2022/05/29 22:24:10;;;;;;;2.10;1.90;;;9.00;99.90;;;;;;8335056;28;20277;-78
2022/05/29 22:28:12;;;;;;;2.00;1.80;;;8.90;99.90;;;;;;8340269;28;20298;-80
2022/05/29 22:32:28;;;;;;;2.20;2.00;;;8.90;99.90;;;;;;8324929;28;20183;-78
2022/05/29 22:36:44;;;;;;;2.23;2.00;;;8.90;99.90;;;;;;8325468;28;20273;-79
2022/05/29 22:40:45;;;;;;;3.43;2.60;;;8.90;99.90;;;;;;8327855;28;20218;-79
2022/05/29 22:44:47;;;;;;;3.83;2.80;;;8.90;99.90;;;;;;8326912;28;20253;-79
2022/05/29 22:49:00;;;;;;;3.23;2.40;;;8.90;99.90;;;;;;8331672;28;20266;-80
2022/05/29 22:53:29;;;;;;;3.73;2.77;;;8.80;99.90;;;;;;8342131;28;20296;-79
2022/05/29 22:57:30;;;;;;;2.77;2.57;;;8.80;99.90;;;;;;8325987;28;20189;-79